TC1653 SAVE-SCCI
Flight info
| Callsign | TC1653 |
|---|---|
| Flight time | 1h 46m |
| Altitude | FL230 |
| Route | ESQ T658 DAKAX Z116 ASOPA UL670 EGOSA G550 NAS |
| Aircraft | B722/M-VD/C |
Departure
| Time | 2026-05-09 15:51 |
|---|---|
| Airport | Esquel Brigadier Antonio Parodi International Airport (SAVE) |
Arrival
| Time | 2026-05-09 17:38 |
|---|---|
| Airport | President Carlos Ibáñez International Airport (SCCI) |
| Time | Latitude | Longitude | Altitude | Speed | Heading |
|---|---|---|---|---|---|
| 2026-05-09 15:09 | -42.90642 | -71.14632 | 2640 ft | 0 kts | 239° |
| 2026-05-09 15:22 | -42.90642 | -71.14631 | 2640 ft | 0 kts | 239° |
| 2026-05-09 15:46 | -42.90643 | -71.14632 | 2640 ft | 0 kts | 236° |
| 2026-05-09 15:47 | -42.90649 | -71.14641 | 2640 ft | 2 kts | 209° |
| 2026-05-09 15:47 | -42.90662 | -71.14637 | 2640 ft | 3 kts | 147° |
| 2026-05-09 15:47 | -42.90696 | -71.14605 | 2640 ft | 8 kts | 144° |
| 2026-05-09 15:47 | -42.90735 | -71.14576 | 2640 ft | 2 kts | 174° |
| 2026-05-09 15:48 | -42.90742 | -71.14576 | 2640 ft | 0 kts | 187° |
| 2026-05-09 15:48 | -42.90746 | -71.14576 | 2640 ft | 3 kts | 187° |
| 2026-05-09 15:49 | -42.90785 | -71.14587 | 2640 ft | 8 kts | 201° |
| 2026-05-09 15:49 | -42.90846 | -71.14633 | 2641 ft | 11 kts | 207° |
| 2026-05-09 15:49 | -42.90918 | -71.14673 | 2640 ft | 12 kts | 202° |
| 2026-05-09 15:49 | -42.90959 | -71.14734 | 2640 ft | 6 kts | 305° |
| 2026-05-09 15:50 | -42.90942 | -71.14734 | 2640 ft | 2 kts | 56° |
| 2026-05-09 15:50 | -42.90939 | -71.14729 | 2640 ft | 0 kts | 55° |
| 2026-05-09 15:50 | -42.90861 | -71.14563 | 2641 ft | 47 kts | 57° |
| 2026-05-09 15:50 | -42.90582 | -71.13978 | 2639 ft | 99 kts | 57° |
| 2026-05-09 15:51 | -42.90125 | -71.13026 | 2640 ft | 140 kts | 57° |
| 2026-05-09 15:51 | -42.89584 | -71.11869 | 2890 ft | 150 kts | 58° |
| 2026-05-09 15:51 | -42.89020 | -71.10553 | 3071 ft | 170 kts | 65° |
| 2026-05-09 15:51 | -42.88796 | -71.08939 | 3414 ft | 181 kts | 95° |
| 2026-05-09 15:52 | -42.90539 | -71.06381 | 4310 ft | 214 kts | 173° |
| 2026-05-09 15:52 | -42.92024 | -71.06701 | 4892 ft | 222 kts | 204° |
| 2026-05-09 15:52 | -42.93378 | -71.07488 | 6056 ft | 201 kts | 206° |
| 2026-05-09 15:53 | -42.94625 | -71.08280 | 6870 ft | 206 kts | 206° |
| 2026-05-09 15:53 | -42.95998 | -71.09169 | 7160 ft | 231 kts | 206° |
| 2026-05-09 15:53 | -42.97575 | -71.09974 | 7458 ft | 256 kts | 186° |
| 2026-05-09 15:53 | -42.99422 | -71.09687 | 7789 ft | 282 kts | 168° |
| 2026-05-09 15:54 | -43.01385 | -71.08976 | 8104 ft | 305 kts | 167° |
| 2026-05-09 15:54 | -43.03528 | -71.08286 | 8416 ft | 328 kts | 169° |
| 2026-05-09 15:54 | -43.05803 | -71.07616 | 9085 ft | 335 kts | 169° |
| 2026-05-09 15:54 | -43.08070 | -71.06998 | 10131 ft | 333 kts | 171° |
| 2026-05-09 15:55 | -43.10371 | -71.06465 | 10889 ft | 338 kts | 173° |
| 2026-05-09 15:55 | -43.12707 | -71.06003 | 11623 ft | 341 kts | 174° |
| 2026-05-09 15:55 | -43.15067 | -71.05583 | 12402 ft | 344 kts | 175° |
| 2026-05-09 15:55 | -43.17445 | -71.05180 | 13106 ft | 348 kts | 175° |
| 2026-05-09 15:56 | -43.19849 | -71.04763 | 13804 ft | 350 kts | 175° |
| 2026-05-09 15:56 | -43.22280 | -71.04322 | 14419 ft | 355 kts | 175° |
| 2026-05-09 15:56 | -43.24743 | -71.03872 | 14980 ft | 360 kts | 175° |
| 2026-05-09 15:56 | -43.27227 | -71.03420 | 15554 ft | 363 kts | 175° |
| 2026-05-09 15:57 | -43.29745 | -71.02963 | 16143 ft | 366 kts | 175° |
| 2026-05-09 15:57 | -43.32275 | -71.02505 | 16740 ft | 369 kts | 175° |
| 2026-05-09 15:57 | -43.34807 | -71.02047 | 17347 ft | 368 kts | 175° |
| 2026-05-09 15:57 | -43.37330 | -71.01558 | 17967 ft | 366 kts | 174° |
| 2026-05-09 15:58 | -43.39837 | -71.01081 | 18597 ft | 364 kts | 174° |
| 2026-05-09 15:58 | -43.42316 | -71.00427 | 19156 ft | 362 kts | 171° |
| 2026-05-09 15:58 | -43.44779 | -70.99928 | 19712 ft | 357 kts | 177° |
| 2026-05-09 15:58 | -43.47241 | -70.99561 | 20275 ft | 356 kts | 176° |
| 2026-05-09 15:59 | -43.49689 | -70.99168 | 20853 ft | 353 kts | 176° |
| 2026-05-09 15:59 | -43.52111 | -70.98774 | 21442 ft | 351 kts | 176° |
| 2026-05-09 15:59 | -43.54523 | -70.98365 | 22040 ft | 348 kts | 176° |
| 2026-05-09 15:59 | -43.56907 | -70.97948 | 22625 ft | 346 kts | 176° |
| 2026-05-09 16:00 | -43.59285 | -70.97543 | 23198 ft | 344 kts | 177° |
| 2026-05-09 16:00 | -43.60078 | -70.97408 | 23369 ft | 344 kts | 177° |
| 2026-05-09 16:00 | -43.64160 | -70.96700 | 23385 ft | 367 kts | 176° |
| 2026-05-09 16:00 | -43.66718 | -70.96227 | 23401 ft | 379 kts | 176° |
| 2026-05-09 16:01 | -43.69376 | -70.95743 | 23401 ft | 390 kts | 176° |
| 2026-05-09 16:01 | -43.72099 | -70.95254 | 23394 ft | 401 kts | 176° |
| 2026-05-09 16:01 | -43.74899 | -70.94758 | 23397 ft | 410 kts | 178° |
| 2026-05-09 16:01 | -43.77728 | -70.94243 | 23387 ft | 412 kts | 176° |
| 2026-05-09 16:02 | -43.80574 | -70.93719 | 23395 ft | 414 kts | 176° |
| 2026-05-09 16:02 | -43.86288 | -70.92672 | 23402 ft | 417 kts | 176° |
| 2026-05-09 16:02 | -43.89170 | -70.92146 | 23400 ft | 418 kts | 176° |
| 2026-05-09 16:03 | -43.92057 | -70.91621 | 23393 ft | 420 kts | 176° |
| 2026-05-09 16:03 | -43.93974 | -70.91273 | 23395 ft | 420 kts | 176° |
| 2026-05-09 16:03 | -43.94948 | -70.91097 | 23392 ft | 421 kts | 176° |
| 2026-05-09 16:03 | -44.00752 | -70.90046 | 23393 ft | 423 kts | 176° |
| 2026-05-09 16:04 | -44.03668 | -70.89519 | 23383 ft | 424 kts | 176° |
| 2026-05-09 16:04 | -44.06596 | -70.88991 | 23391 ft | 424 kts | 176° |
| 2026-05-09 16:04 | -44.09516 | -70.88465 | 23385 ft | 425 kts | 176° |
| 2026-05-09 16:04 | -44.12446 | -70.87939 | 23382 ft | 426 kts | 176° |
| 2026-05-09 16:05 | -44.15389 | -70.87410 | 23380 ft | 426 kts | 176° |
| 2026-05-09 16:05 | -44.18325 | -70.86884 | 23370 ft | 427 kts | 176° |
| 2026-05-09 16:05 | -44.21266 | -70.86358 | 23374 ft | 428 kts | 176° |
| 2026-05-09 16:05 | -44.24208 | -70.85832 | 23368 ft | 428 kts | 176° |
| 2026-05-09 16:06 | -44.27159 | -70.85304 | 23367 ft | 428 kts | 176° |
| 2026-05-09 16:06 | -44.30111 | -70.84765 | 23359 ft | 429 kts | 175° |
| 2026-05-09 16:06 | -44.33062 | -70.84183 | 23363 ft | 429 kts | 176° |
| 2026-05-09 16:06 | -44.36011 | -70.83640 | 23352 ft | 429 kts | 176° |
| 2026-05-09 16:07 | -44.38961 | -70.83092 | 23352 ft | 429 kts | 176° |
| 2026-05-09 16:07 | -44.41914 | -70.82542 | 23347 ft | 430 kts | 176° |
| 2026-05-09 16:07 | -44.44873 | -70.81991 | 23348 ft | 430 kts | 176° |
| 2026-05-09 16:07 | -44.47835 | -70.81440 | 23343 ft | 430 kts | 176° |
| 2026-05-09 16:08 | -44.50807 | -70.80886 | 23339 ft | 430 kts | 176° |
| 2026-05-09 16:08 | -44.51782 | -70.80705 | 23338 ft | 431 kts | 176° |
| 2026-05-09 16:08 | -44.55732 | -70.79970 | 23349 ft | 430 kts | 176° |
| 2026-05-09 16:08 | -44.59689 | -70.79235 | 23333 ft | 431 kts | 176° |
| 2026-05-09 16:09 | -44.62653 | -70.78686 | 23327 ft | 430 kts | 176° |
| 2026-05-09 16:09 | -44.65612 | -70.78139 | 23323 ft | 430 kts | 176° |
| 2026-05-09 16:09 | -44.68571 | -70.77593 | 23322 ft | 430 kts | 176° |
| 2026-05-09 16:09 | -44.71539 | -70.77043 | 23319 ft | 430 kts | 176° |
| 2026-05-09 16:10 | -44.74499 | -70.76494 | 23316 ft | 430 kts | 176° |
| 2026-05-09 16:10 | -44.77458 | -70.75947 | 23325 ft | 430 kts | 176° |
| 2026-05-09 16:10 | -44.80415 | -70.75531 | 23319 ft | 427 kts | 180° |
| 2026-05-09 16:10 | -44.83363 | -70.75587 | 23319 ft | 424 kts | 186° |
| 2026-05-09 16:11 | -44.86293 | -70.75966 | 23318 ft | 423 kts | 188° |
| 2026-05-09 16:11 | -44.89219 | -70.76331 | 23321 ft | 423 kts | 187° |
| 2026-05-09 16:11 | -44.92151 | -70.76644 | 23311 ft | 424 kts | 187° |
| 2026-05-09 16:11 | -44.95078 | -70.76958 | 23315 ft | 423 kts | 187° |
| 2026-05-09 16:12 | -44.98019 | -70.77275 | 23310 ft | 423 kts | 187° |
| 2026-05-09 16:12 | -45.00943 | -70.77589 | 23314 ft | 423 kts | 187° |
| 2026-05-09 16:12 | -45.03878 | -70.77906 | 23309 ft | 424 kts | 187° |
| 2026-05-09 16:12 | -45.06810 | -70.78222 | 23311 ft | 423 kts | 187° |
| 2026-05-09 16:13 | -45.09737 | -70.78539 | 23312 ft | 423 kts | 187° |
| 2026-05-09 16:13 | -45.12666 | -70.78856 | 23313 ft | 423 kts | 187° |
| 2026-05-09 16:13 | -45.15604 | -70.79175 | 23309 ft | 423 kts | 187° |
| 2026-05-09 16:13 | -45.18527 | -70.79493 | 23308 ft | 423 kts | 187° |
| 2026-05-09 16:14 | -45.21456 | -70.79812 | 23307 ft | 423 kts | 187° |
| 2026-05-09 16:14 | -45.24386 | -70.80131 | 23309 ft | 423 kts | 187° |
| 2026-05-09 16:14 | -45.27315 | -70.80451 | 23303 ft | 423 kts | 187° |
| 2026-05-09 16:14 | -45.30245 | -70.80771 | 23302 ft | 423 kts | 187° |
| 2026-05-09 16:15 | -45.33172 | -70.81092 | 23301 ft | 423 kts | 187° |
| 2026-05-09 16:15 | -45.36101 | -70.81412 | 23300 ft | 423 kts | 187° |
| 2026-05-09 16:15 | -45.39032 | -70.81730 | 23292 ft | 423 kts | 186° |
| 2026-05-09 16:15 | -45.41970 | -70.82019 | 23293 ft | 423 kts | 187° |
| 2026-05-09 16:16 | -45.44901 | -70.82335 | 23292 ft | 423 kts | 187° |
| 2026-05-09 16:16 | -45.47824 | -70.82650 | 23291 ft | 423 kts | 187° |
| 2026-05-09 16:16 | -45.50750 | -70.82967 | 23283 ft | 423 kts | 187° |
| 2026-05-09 16:16 | -45.53682 | -70.83285 | 23288 ft | 423 kts | 187° |
| 2026-05-09 16:17 | -45.56608 | -70.83604 | 23285 ft | 423 kts | 187° |
| 2026-05-09 16:17 | -45.59536 | -70.83916 | 23283 ft | 423 kts | 187° |
| 2026-05-09 16:17 | -45.62460 | -70.84223 | 23289 ft | 423 kts | 186° |
| 2026-05-09 16:17 | -45.65389 | -70.84542 | 23284 ft | 423 kts | 187° |
| 2026-05-09 16:18 | -45.68324 | -70.84863 | 23291 ft | 423 kts | 187° |
| 2026-05-09 16:18 | -45.71242 | -70.85183 | 23283 ft | 423 kts | 187° |
| 2026-05-09 16:18 | -45.74173 | -70.85503 | 23290 ft | 423 kts | 186° |
| 2026-05-09 16:18 | -45.77098 | -70.85818 | 23282 ft | 422 kts | 187° |
| 2026-05-09 16:19 | -45.80028 | -70.86136 | 23280 ft | 422 kts | 187° |
| 2026-05-09 16:19 | -45.82944 | -70.86463 | 23285 ft | 422 kts | 186° |
| 2026-05-09 16:19 | -45.85876 | -70.86780 | 23278 ft | 422 kts | 187° |
| 2026-05-09 16:19 | -45.88799 | -70.87087 | 23282 ft | 422 kts | 187° |
| 2026-05-09 16:20 | -45.91718 | -70.87413 | 23283 ft | 422 kts | 187° |
| 2026-05-09 16:20 | -45.93667 | -70.87616 | 23277 ft | 422 kts | 187° |
| 2026-05-09 16:20 | -45.96580 | -70.87938 | 23282 ft | 422 kts | 186° |
| 2026-05-09 16:20 | -46.00484 | -70.88346 | 23271 ft | 422 kts | 186° |
| 2026-05-09 16:21 | -46.03394 | -70.88677 | 23274 ft | 422 kts | 187° |
| 2026-05-09 16:21 | -46.06320 | -70.88989 | 23273 ft | 422 kts | 187° |
| 2026-05-09 16:21 | -46.08272 | -70.89209 | 23277 ft | 421 kts | 187° |
| 2026-05-09 16:21 | -46.11193 | -70.89533 | 23269 ft | 422 kts | 187° |
| 2026-05-09 16:22 | -46.15079 | -70.89966 | 23269 ft | 422 kts | 187° |
| 2026-05-09 16:22 | -46.17990 | -70.90291 | 23268 ft | 422 kts | 187° |
| 2026-05-09 16:22 | -46.20916 | -70.90617 | 23278 ft | 422 kts | 187° |
| 2026-05-09 16:22 | -46.23832 | -70.90943 | 23273 ft | 422 kts | 187° |
| 2026-05-09 16:23 | -46.26749 | -70.91270 | 23274 ft | 422 kts | 187° |
| 2026-05-09 16:23 | -46.29673 | -70.91597 | 23276 ft | 422 kts | 187° |
| 2026-05-09 16:23 | -46.32589 | -70.91923 | 23268 ft | 422 kts | 187° |
| 2026-05-09 16:23 | -46.35515 | -70.92250 | 23268 ft | 422 kts | 187° |
| 2026-05-09 16:24 | -46.38435 | -70.92577 | 23270 ft | 422 kts | 187° |
| 2026-05-09 16:24 | -46.41363 | -70.92904 | 23270 ft | 422 kts | 187° |
| 2026-05-09 16:24 | -46.44293 | -70.93232 | 23267 ft | 423 kts | 186° |
| 2026-05-09 16:24 | -46.47207 | -70.93559 | 23270 ft | 423 kts | 187° |
| 2026-05-09 16:25 | -46.50135 | -70.93888 | 23270 ft | 423 kts | 186° |
| 2026-05-09 16:25 | -46.52087 | -70.94106 | 23267 ft | 423 kts | 186° |
| 2026-05-09 16:25 | -46.55991 | -70.94545 | 23262 ft | 423 kts | 186° |
| 2026-05-09 16:25 | -46.58911 | -70.94873 | 23262 ft | 423 kts | 186° |
| 2026-05-09 16:26 | -46.60866 | -70.95094 | 23265 ft | 423 kts | 186° |
| 2026-05-09 16:26 | -46.63792 | -70.95423 | 23264 ft | 423 kts | 187° |
| 2026-05-09 16:26 | -46.67690 | -70.95862 | 23259 ft | 423 kts | 186° |
| 2026-05-09 16:26 | -46.70620 | -70.96191 | 23263 ft | 422 kts | 186° |
| 2026-05-09 16:27 | -46.73545 | -70.96520 | 23260 ft | 422 kts | 187° |
| 2026-05-09 16:27 | -46.76467 | -70.96849 | 23253 ft | 421 kts | 187° |
| 2026-05-09 16:27 | -46.79376 | -70.97178 | 23266 ft | 421 kts | 187° |
| 2026-05-09 16:27 | -46.82296 | -70.97511 | 23249 ft | 421 kts | 187° |
| 2026-05-09 16:28 | -46.85212 | -70.97845 | 23249 ft | 421 kts | 187° |
| 2026-05-09 16:28 | -46.88119 | -70.98178 | 23255 ft | 421 kts | 187° |
| 2026-05-09 16:28 | -46.91037 | -70.98514 | 23255 ft | 421 kts | 186° |
| 2026-05-09 16:28 | -46.93953 | -70.98852 | 23252 ft | 421 kts | 187° |
| 2026-05-09 16:29 | -46.96866 | -70.99192 | 23247 ft | 421 kts | 187° |
| 2026-05-09 16:29 | -46.99789 | -70.99534 | 23245 ft | 421 kts | 187° |
| 2026-05-09 16:29 | -47.02700 | -70.99877 | 23236 ft | 421 kts | 186° |
| 2026-05-09 16:29 | -47.05610 | -71.00221 | 23247 ft | 421 kts | 187° |
| 2026-05-09 16:30 | -47.08524 | -71.00566 | 23242 ft | 422 kts | 186° |
| 2026-05-09 16:30 | -47.11446 | -71.00920 | 23247 ft | 421 kts | 187° |
| 2026-05-09 16:30 | -47.14365 | -71.01282 | 23244 ft | 421 kts | 187° |
| 2026-05-09 16:30 | -47.17268 | -71.01645 | 23255 ft | 421 kts | 187° |
| 2026-05-09 16:31 | -47.20188 | -71.02000 | 23261 ft | 421 kts | 187° |
| 2026-05-09 16:31 | -47.23105 | -71.02344 | 23256 ft | 421 kts | 186° |
| 2026-05-09 16:31 | -47.26016 | -71.02684 | 23259 ft | 422 kts | 186° |
| 2026-05-09 16:31 | -47.28940 | -71.03032 | 23261 ft | 422 kts | 186° |
| 2026-05-09 16:32 | -47.31855 | -71.03380 | 23263 ft | 422 kts | 186° |
| 2026-05-09 16:32 | -47.33803 | -71.03613 | 23259 ft | 422 kts | 186° |
| 2026-05-09 16:32 | -47.37705 | -71.04082 | 23261 ft | 423 kts | 186° |
| 2026-05-09 16:32 | -47.40631 | -71.04434 | 23265 ft | 423 kts | 186° |
| 2026-05-09 16:33 | -47.43557 | -71.04785 | 23265 ft | 423 kts | 186° |
| 2026-05-09 16:33 | -47.46480 | -71.05136 | 23260 ft | 423 kts | 186° |
| 2026-05-09 16:33 | -47.49415 | -71.05487 | 23258 ft | 423 kts | 186° |
| 2026-05-09 16:33 | -47.52346 | -71.05838 | 23256 ft | 424 kts | 186° |
| 2026-05-09 16:34 | -47.55266 | -71.06188 | 23249 ft | 423 kts | 186° |
| 2026-05-09 16:34 | -47.58205 | -71.06541 | 23256 ft | 423 kts | 186° |
| 2026-05-09 16:34 | -47.61132 | -71.06893 | 23250 ft | 423 kts | 186° |
| 2026-05-09 16:34 | -47.64056 | -71.07247 | 23252 ft | 423 kts | 186° |
| 2026-05-09 16:35 | -47.66988 | -71.07603 | 23247 ft | 423 kts | 186° |
| 2026-05-09 16:35 | -47.69908 | -71.07959 | 23244 ft | 423 kts | 186° |
| 2026-05-09 16:35 | -47.72823 | -71.08315 | 23240 ft | 422 kts | 186° |
| 2026-05-09 16:35 | -47.75752 | -71.08675 | 23241 ft | 422 kts | 186° |
| 2026-05-09 16:36 | -47.78674 | -71.09034 | 23237 ft | 422 kts | 186° |
| 2026-05-09 16:36 | -47.87440 | -71.10112 | 23230 ft | 422 kts | 186° |
| 2026-05-09 16:37 | -47.90350 | -71.10472 | 23220 ft | 422 kts | 186° |
| 2026-05-09 16:37 | -47.93274 | -71.10834 | 23222 ft | 422 kts | 186° |
| 2026-05-09 16:37 | -47.96180 | -71.11195 | 23222 ft | 422 kts | 186° |
| 2026-05-09 16:37 | -47.99106 | -71.11517 | 23220 ft | 422 kts | 186° |
| 2026-05-09 16:38 | -48.02028 | -71.11875 | 23219 ft | 421 kts | 186° |
| 2026-05-09 16:38 | -48.04947 | -71.12239 | 23214 ft | 422 kts | 186° |
| 2026-05-09 16:38 | -48.07864 | -71.12578 | 23213 ft | 422 kts | 186° |
| 2026-05-09 16:38 | -48.10785 | -71.12932 | 23211 ft | 422 kts | 186° |
| 2026-05-09 16:39 | -48.13700 | -71.13280 | 23215 ft | 422 kts | 186° |
| 2026-05-09 16:39 | -48.16618 | -71.13641 | 23214 ft | 422 kts | 186° |
| 2026-05-09 16:39 | -48.19541 | -71.13994 | 23207 ft | 422 kts | 186° |
| 2026-05-09 16:39 | -48.22461 | -71.14340 | 23203 ft | 422 kts | 186° |
| 2026-05-09 16:40 | -48.25374 | -71.14687 | 23196 ft | 421 kts | 186° |
| 2026-05-09 16:40 | -48.28290 | -71.15045 | 23198 ft | 420 kts | 186° |
| 2026-05-09 16:42 | -48.48506 | -71.17560 | 23182 ft | 415 kts | 186° |
| 2026-05-09 16:42 | -48.51385 | -71.17919 | 23182 ft | 415 kts | 186° |
| 2026-05-09 16:42 | -48.54257 | -71.18278 | 23181 ft | 415 kts | 186° |
| 2026-05-09 16:42 | -48.57117 | -71.18635 | 23173 ft | 414 kts | 186° |
| 2026-05-09 16:43 | -48.59992 | -71.18995 | 23172 ft | 414 kts | 186° |
| 2026-05-09 16:43 | -48.62856 | -71.19354 | 23170 ft | 414 kts | 186° |
| 2026-05-09 16:43 | -48.65706 | -71.19710 | 23173 ft | 414 kts | 186° |
| 2026-05-09 16:43 | -48.68582 | -71.20018 | 23161 ft | 414 kts | 186° |
| 2026-05-09 16:44 | -48.71444 | -71.20363 | 23165 ft | 413 kts | 186° |
| 2026-05-09 16:44 | -48.74299 | -71.20715 | 23164 ft | 414 kts | 186° |
| 2026-05-09 16:44 | -48.77167 | -71.21070 | 23169 ft | 414 kts | 186° |
| 2026-05-09 16:44 | -48.80033 | -71.21424 | 23166 ft | 414 kts | 186° |
| 2026-05-09 16:45 | -48.82890 | -71.21778 | 23164 ft | 414 kts | 186° |
| 2026-05-09 16:45 | -48.85763 | -71.22134 | 23163 ft | 414 kts | 186° |
| 2026-05-09 16:45 | -48.88621 | -71.22487 | 23164 ft | 414 kts | 186° |
| 2026-05-09 16:45 | -48.91493 | -71.22824 | 23162 ft | 414 kts | 186° |
| 2026-05-09 16:46 | -48.94351 | -71.23183 | 23158 ft | 413 kts | 186° |
| 2026-05-09 16:46 | -48.97211 | -71.23532 | 23157 ft | 413 kts | 186° |
| 2026-05-09 16:46 | -49.00062 | -71.23893 | 23159 ft | 412 kts | 186° |
| 2026-05-09 16:46 | -49.02915 | -71.24234 | 23161 ft | 412 kts | 186° |
| 2026-05-09 16:47 | -49.05768 | -71.24583 | 23185 ft | 411 kts | 186° |
| 2026-05-09 16:47 | -49.08615 | -71.24934 | 23281 ft | 409 kts | 186° |
| 2026-05-09 16:47 | -49.11424 | -71.25290 | 23501 ft | 406 kts | 186° |
| 2026-05-09 16:47 | -49.14239 | -71.25642 | 23770 ft | 407 kts | 186° |
| 2026-05-09 16:48 | -49.17059 | -71.25994 | 24027 ft | 408 kts | 186° |
| 2026-05-09 16:48 | -49.19879 | -71.26347 | 24269 ft | 408 kts | 186° |
| 2026-05-09 16:48 | -49.22697 | -71.26701 | 24536 ft | 408 kts | 186° |
| 2026-05-09 16:48 | -49.25523 | -71.27057 | 24793 ft | 407 kts | 186° |
| 2026-05-09 16:49 | -49.28334 | -71.27411 | 25093 ft | 406 kts | 186° |
| 2026-05-09 16:49 | -49.31139 | -71.27763 | 25406 ft | 404 kts | 186° |
| 2026-05-09 16:49 | -49.33932 | -71.28103 | 25718 ft | 402 kts | 186° |
| 2026-05-09 16:50 | -49.39474 | -71.28784 | 26349 ft | 399 kts | 186° |
| 2026-05-09 16:50 | -49.42225 | -71.29145 | 26675 ft | 397 kts | 186° |
| 2026-05-09 16:50 | -49.44969 | -71.29478 | 27002 ft | 395 kts | 186° |
| 2026-05-09 16:50 | -49.47712 | -71.29819 | 27155 ft | 397 kts | 186° |
| 2026-05-09 16:51 | -49.50482 | -71.30162 | 27158 ft | 403 kts | 186° |
| 2026-05-09 16:51 | -49.53283 | -71.30507 | 27154 ft | 408 kts | 186° |
| 2026-05-09 16:51 | -49.56116 | -71.30866 | 27162 ft | 412 kts | 186° |
| 2026-05-09 16:51 | -49.58974 | -71.31210 | 27163 ft | 414 kts | 186° |
| 2026-05-09 16:52 | -49.61860 | -71.31380 | 27170 ft | 417 kts | 181° |
| 2026-05-09 16:52 | -49.64753 | -71.31162 | 27169 ft | 419 kts | 179° |
| 2026-05-09 16:52 | -49.67674 | -71.30861 | 27169 ft | 421 kts | 179° |
| 2026-05-09 16:52 | -49.70594 | -71.30496 | 27171 ft | 423 kts | 178° |
| 2026-05-09 16:53 | -49.73529 | -71.30118 | 27169 ft | 424 kts | 178° |
| 2026-05-09 16:53 | -49.76469 | -71.29741 | 27171 ft | 425 kts | 178° |
| 2026-05-09 16:53 | -49.79394 | -71.29409 | 27166 ft | 422 kts | 178° |
| 2026-05-09 16:53 | -49.82309 | -71.29055 | 27165 ft | 419 kts | 178° |
| 2026-05-09 16:54 | -49.85206 | -71.28720 | 27162 ft | 417 kts | 179° |
| 2026-05-09 16:54 | -49.88079 | -71.28391 | 27161 ft | 414 kts | 178° |
| 2026-05-09 16:54 | -49.90939 | -71.28066 | 27157 ft | 412 kts | 178° |
| 2026-05-09 16:54 | -49.93789 | -71.27737 | 27160 ft | 411 kts | 178° |
| 2026-05-09 16:55 | -49.95690 | -71.27515 | 27156 ft | 410 kts | 178° |
| 2026-05-09 16:55 | -49.99462 | -71.27074 | 27153 ft | 409 kts | 178° |
| 2026-05-09 16:55 | -50.02292 | -71.26743 | 27151 ft | 408 kts | 178° |
| 2026-05-09 16:55 | -50.05113 | -71.26414 | 27152 ft | 407 kts | 178° |
| 2026-05-09 16:56 | -50.07922 | -71.26085 | 27150 ft | 406 kts | 178° |
| 2026-05-09 16:56 | -50.10726 | -71.25756 | 27147 ft | 405 kts | 178° |
| 2026-05-09 16:56 | -50.13524 | -71.25428 | 27145 ft | 404 kts | 178° |
| 2026-05-09 16:56 | -50.16331 | -71.25098 | 27145 ft | 404 kts | 178° |
| 2026-05-09 16:57 | -50.19127 | -71.24769 | 27145 ft | 403 kts | 178° |
| 2026-05-09 16:57 | -50.21918 | -71.24439 | 27140 ft | 403 kts | 178° |
| 2026-05-09 16:57 | -50.24702 | -71.24110 | 27136 ft | 402 kts | 178° |
| 2026-05-09 16:57 | -50.27486 | -71.23782 | 27138 ft | 402 kts | 178° |
| 2026-05-09 16:58 | -50.30262 | -71.23452 | 27135 ft | 401 kts | 178° |
| 2026-05-09 16:58 | -50.33046 | -71.23122 | 27132 ft | 401 kts | 178° |
| 2026-05-09 16:58 | -50.35813 | -71.22794 | 27129 ft | 400 kts | 178° |
| 2026-05-09 16:58 | -50.38586 | -71.22466 | 27127 ft | 400 kts | 178° |
| 2026-05-09 16:59 | -50.41342 | -71.22140 | 27124 ft | 399 kts | 178° |
| 2026-05-09 16:59 | -50.44107 | -71.21812 | 27127 ft | 399 kts | 178° |
| 2026-05-09 16:59 | -50.46874 | -71.21487 | 27121 ft | 398 kts | 178° |
| 2026-05-09 16:59 | -50.49625 | -71.21182 | 27123 ft | 398 kts | 178° |
| 2026-05-09 17:00 | -50.52383 | -71.20869 | 27120 ft | 398 kts | 178° |
| 2026-05-09 17:00 | -50.55144 | -71.20538 | 27121 ft | 397 kts | 178° |
| 2026-05-09 17:00 | -50.57887 | -71.20211 | 27116 ft | 396 kts | 177° |
| 2026-05-09 17:00 | -50.60621 | -71.19880 | 27116 ft | 395 kts | 178° |
| 2026-05-09 17:01 | -50.63364 | -71.19546 | 27115 ft | 395 kts | 178° |
| 2026-05-09 17:01 | -50.66088 | -71.19215 | 27112 ft | 394 kts | 178° |
| 2026-05-09 17:01 | -50.68816 | -71.18884 | 27449 ft | 393 kts | 178° |
| 2026-05-09 17:01 | -50.71505 | -71.18480 | 27127 ft | 387 kts | 176° |
| 2026-05-09 17:02 | -50.74181 | -71.18171 | 27132 ft | 386 kts | 179° |
| 2026-05-09 17:02 | -50.76857 | -71.17904 | 27127 ft | 386 kts | 178° |
| 2026-05-09 17:02 | -50.79526 | -71.17606 | 27119 ft | 387 kts | 178° |
| 2026-05-09 17:02 | -50.82210 | -71.17306 | 27116 ft | 387 kts | 178° |
| 2026-05-09 17:03 | -50.84896 | -71.17007 | 27117 ft | 387 kts | 178° |
| 2026-05-09 17:04 | -51.03707 | -71.14705 | 27113 ft | 389 kts | 177° |
| 2026-05-09 17:05 | -51.06395 | -71.14328 | 27114 ft | 390 kts | 177° |
| 2026-05-09 17:05 | -51.09090 | -71.13954 | 27118 ft | 390 kts | 178° |
| 2026-05-09 17:05 | -51.11790 | -71.13631 | 27109 ft | 390 kts | 178° |
| 2026-05-09 17:05 | -51.14492 | -71.13309 | 27109 ft | 390 kts | 178° |
| 2026-05-09 17:06 | -51.16291 | -71.13087 | 27109 ft | 390 kts | 178° |
| 2026-05-09 17:06 | -51.19897 | -71.12645 | 27107 ft | 390 kts | 178° |
| 2026-05-09 17:06 | -51.21703 | -71.12422 | 27116 ft | 391 kts | 178° |
| 2026-05-09 17:06 | -51.25304 | -71.11975 | 27111 ft | 391 kts | 178° |
| 2026-05-09 17:07 | -51.28012 | -71.11634 | 27105 ft | 391 kts | 178° |
| 2026-05-09 17:07 | -51.28918 | -71.11520 | 27109 ft | 392 kts | 178° |
| 2026-05-09 17:07 | -51.32532 | -71.11067 | 27120 ft | 392 kts | 178° |
| 2026-05-09 17:07 | -51.36156 | -71.10621 | 27101 ft | 393 kts | 178° |
| 2026-05-09 17:08 | -51.38875 | -71.10284 | 27101 ft | 393 kts | 178° |
| 2026-05-09 17:08 | -51.44318 | -71.09590 | 27095 ft | 394 kts | 178° |
| 2026-05-09 17:08 | -51.47013 | -71.09254 | 27114 ft | 377 kts | 178° |
| 2026-05-09 17:09 | -51.49526 | -71.08926 | 27130 ft | 350 kts | 178° |
| 2026-05-09 17:09 | -51.51876 | -71.08607 | 26877 ft | 333 kts | 178° |
| 2026-05-09 17:09 | -51.54149 | -71.08306 | 26336 ft | 325 kts | 179° |
| 2026-05-09 17:09 | -51.55647 | -71.08111 | 25980 ft | 321 kts | 178° |
| 2026-05-09 17:10 | -51.58558 | -71.07752 | 25300 ft | 311 kts | 179° |
| 2026-05-09 17:10 | -51.60697 | -71.07544 | 24797 ft | 306 kts | 180° |
| 2026-05-09 17:10 | -51.62795 | -71.07301 | 24306 ft | 302 kts | 176° |
| 2026-05-09 17:10 | -51.64873 | -71.06911 | 23824 ft | 299 kts | 175° |
| 2026-05-09 17:11 | -51.66920 | -71.06491 | 23278 ft | 295 kts | 175° |
| 2026-05-09 17:11 | -51.68944 | -71.06082 | 22691 ft | 293 kts | 175° |
| 2026-05-09 17:11 | -51.70960 | -71.05674 | 22130 ft | 291 kts | 175° |
| 2026-05-09 17:11 | -51.72961 | -71.05268 | 21586 ft | 290 kts | 175° |
| 2026-05-09 17:12 | -51.74961 | -71.04863 | 21042 ft | 289 kts | 174° |
| 2026-05-09 17:12 | -51.76954 | -71.04460 | 20515 ft | 289 kts | 174° |
| 2026-05-09 17:12 | -51.78939 | -71.04068 | 19996 ft | 288 kts | 174° |
| 2026-05-09 17:12 | -51.80919 | -71.03684 | 19492 ft | 288 kts | 174° |
| 2026-05-09 17:13 | -51.82908 | -71.03311 | 18989 ft | 288 kts | 174° |
| 2026-05-09 17:13 | -51.84227 | -71.03070 | 18659 ft | 288 kts | 174° |
| 2026-05-09 17:13 | -51.86881 | -71.02613 | 17937 ft | 288 kts | 175° |
| 2026-05-09 17:13 | -51.88209 | -71.02386 | 17570 ft | 288 kts | 175° |
| 2026-05-09 17:14 | -51.90197 | -71.02040 | 17015 ft | 288 kts | 174° |
| 2026-05-09 17:14 | -51.92191 | -71.01691 | 16472 ft | 289 kts | 174° |
| 2026-05-09 17:14 | -51.94190 | -71.01347 | 15939 ft | 290 kts | 175° |
| 2026-05-09 17:14 | -51.96861 | -71.00931 | 15242 ft | 290 kts | 175° |
| 2026-05-09 17:15 | -51.98872 | -71.00620 | 14726 ft | 291 kts | 175° |
| 2026-05-09 17:15 | -52.00883 | -71.00306 | 14221 ft | 292 kts | 175° |
| 2026-05-09 17:15 | -52.02907 | -70.99981 | 13698 ft | 293 kts | 175° |
| 2026-05-09 17:15 | -52.04937 | -70.99648 | 13144 ft | 294 kts | 175° |
| 2026-05-09 17:16 | -52.06970 | -70.99318 | 12582 ft | 294 kts | 175° |
| 2026-05-09 17:17 | -52.21154 | -70.95699 | 8835 ft | 297 kts | 171° |
| 2026-05-09 17:18 | -52.23174 | -70.95045 | 8288 ft | 297 kts | 171° |
| 2026-05-09 17:18 | -52.25194 | -70.94391 | 7751 ft | 297 kts | 171° |
| 2026-05-09 17:18 | -52.27212 | -70.93736 | 7225 ft | 297 kts | 171° |
| 2026-05-09 17:18 | -52.29227 | -70.93081 | 6700 ft | 296 kts | 171° |
| 2026-05-09 17:19 | -52.31251 | -70.92422 | 6167 ft | 296 kts | 171° |
| 2026-05-09 17:19 | -52.33262 | -70.91770 | 5613 ft | 296 kts | 171° |
| 2026-05-09 17:19 | -52.35288 | -70.91142 | 5079 ft | 296 kts | 172° |
| 2026-05-09 17:19 | -52.37302 | -70.90539 | 4611 ft | 294 kts | 172° |
| 2026-05-09 17:20 | -52.39292 | -70.89941 | 4261 ft | 290 kts | 172° |
| 2026-05-09 17:20 | -52.41272 | -70.89350 | 4042 ft | 287 kts | 173° |
| 2026-05-09 17:20 | -52.43211 | -70.88911 | 4043 ft | 277 kts | 175° |
| 2026-05-09 17:20 | -52.45100 | -70.88507 | 4043 ft | 272 kts | 175° |
| 2026-05-09 17:21 | -52.46963 | -70.88106 | 4020 ft | 270 kts | 175° |
| 2026-05-09 17:21 | -52.48211 | -70.87838 | 4023 ft | 276 kts | 175° |
| 2026-05-09 17:21 | -52.50147 | -70.87408 | 4033 ft | 287 kts | 174° |
| 2026-05-09 17:21 | -52.52835 | -70.86781 | 4037 ft | 300 kts | 174° |
| 2026-05-09 17:22 | -52.54927 | -70.86280 | 4030 ft | 308 kts | 174° |
| 2026-05-09 17:22 | -52.57054 | -70.85770 | 4021 ft | 310 kts | 174° |
| 2026-05-09 17:22 | -52.58458 | -70.85432 | 4045 ft | 303 kts | 174° |
| 2026-05-09 17:22 | -52.60516 | -70.84932 | 4026 ft | 295 kts | 174° |
| 2026-05-09 17:23 | -52.63173 | -70.84303 | 4014 ft | 285 kts | 176° |
| 2026-05-09 17:23 | -52.64471 | -70.84052 | 4014 ft | 281 kts | 176° |
| 2026-05-09 17:23 | -52.66394 | -70.83716 | 4016 ft | 275 kts | 178° |
| 2026-05-09 17:23 | -52.68279 | -70.83464 | 4010 ft | 271 kts | 178° |
| 2026-05-09 17:25 | -52.76858 | -70.79573 | 3822 ft | 246 kts | 111° |
| 2026-05-09 17:25 | -52.77243 | -70.76894 | 3859 ft | 237 kts | 104° |
| 2026-05-09 17:25 | -52.77633 | -70.74284 | 3754 ft | 234 kts | 102° |
| 2026-05-09 17:25 | -52.78013 | -70.71700 | 3647 ft | 229 kts | 109° |
| 2026-05-09 17:26 | -52.78529 | -70.69264 | 3578 ft | 222 kts | 112° |
| 2026-05-09 17:26 | -52.78922 | -70.67711 | 3507 ft | 218 kts | 116° |
| 2026-05-09 17:26 | -52.79588 | -70.65525 | 3344 ft | 207 kts | 119° |
| 2026-05-09 17:26 | -52.80285 | -70.63546 | 3149 ft | 193 kts | 124° |
| 2026-05-09 17:27 | -52.81017 | -70.61759 | 2994 ft | 186 kts | 126° |
| 2026-05-09 17:27 | -52.81769 | -70.60049 | 2932 ft | 184 kts | 132° |
| 2026-05-09 17:27 | -52.82868 | -70.57780 | 2926 ft | 197 kts | 131° |
| 2026-05-09 17:27 | -52.83753 | -70.56072 | 3043 ft | 199 kts | 135° |
| 2026-05-09 17:28 | -52.84737 | -70.54418 | 3047 ft | 204 kts | 140° |
| 2026-05-09 17:28 | -52.85433 | -70.53374 | 2992 ft | 205 kts | 141° |
| 2026-05-09 17:28 | -52.86501 | -70.51865 | 3033 ft | 199 kts | 146° |
| 2026-05-09 17:28 | -52.87594 | -70.50493 | 3028 ft | 198 kts | 146° |
| 2026-05-09 17:29 | -52.88730 | -70.49206 | 3036 ft | 197 kts | 152° |
| 2026-05-09 17:29 | -52.89901 | -70.48049 | 3033 ft | 196 kts | 154° |
| 2026-05-09 17:29 | -52.91111 | -70.47058 | 2981 ft | 193 kts | 158° |
| 2026-05-09 17:29 | -52.92700 | -70.45919 | 2941 ft | 182 kts | 162° |
| 2026-05-09 17:30 | -52.93478 | -70.45393 | 2987 ft | 182 kts | 162° |
| 2026-05-09 17:30 | -52.94690 | -70.44611 | 2913 ft | 189 kts | 166° |
| 2026-05-09 17:30 | -52.95949 | -70.44015 | 2963 ft | 189 kts | 168° |
| 2026-05-09 17:30 | -52.97208 | -70.43340 | 3027 ft | 189 kts | 166° |
| 2026-05-09 17:31 | -52.98475 | -70.42794 | 3033 ft | 188 kts | 177° |
| 2026-05-09 17:31 | -52.99761 | -70.42872 | 3029 ft | 183 kts | 204° |
| 2026-05-09 17:32 | -52.99693 | -70.49995 | 2883 ft | 150 kts | 281° |
| 2026-05-09 17:32 | -52.99580 | -70.51109 | 2887 ft | 144 kts | 276° |
| 2026-05-09 17:32 | -52.99572 | -70.52746 | 2844 ft | 140 kts | 265° |
| 2026-05-09 17:33 | -52.99660 | -70.54365 | 2826 ft | 142 kts | 264° |
| 2026-05-09 17:33 | -52.99723 | -70.56012 | 2795 ft | 146 kts | 267° |
| 2026-05-09 17:33 | -52.99755 | -70.57707 | 2765 ft | 149 kts | 269° |
| 2026-05-09 17:33 | -52.99738 | -70.59963 | 2585 ft | 145 kts | 269° |
| 2026-05-09 17:34 | -52.99755 | -70.61081 | 2470 ft | 146 kts | 268° |
| 2026-05-09 17:35 | -52.99885 | -70.71341 | 1433 ft | 154 kts | 266° |
| 2026-05-09 17:35 | -52.99937 | -70.73087 | 1230 ft | 149 kts | 269° |
| 2026-05-09 17:36 | -52.99931 | -70.74797 | 996 ft | 149 kts | 271° |
| 2026-05-09 17:36 | -52.99968 | -70.76465 | 856 ft | 142 kts | 266° |
| 2026-05-09 17:36 | -53.00007 | -70.78637 | 645 ft | 142 kts | 269° |
| 2026-05-09 17:36 | -53.00020 | -70.79732 | 540 ft | 143 kts | 271° |
| 2026-05-09 17:37 | -53.00048 | -70.81366 | 418 ft | 140 kts | 269° |
| 2026-05-09 17:37 | -53.00072 | -70.83504 | 172 ft | 139 kts | 270° |
| 2026-05-09 17:37 | -53.00083 | -70.84569 | 159 ft | 136 kts | 271° |
| 2026-05-09 17:37 | -53.00095 | -70.86021 | 147 ft | 105 kts | 270° |
| 2026-05-09 17:38 | -53.00101 | -70.86764 | 146 ft | 16 kts | 272° |
| 2026-05-09 17:38 | -53.00099 | -70.86890 | 143 ft | 8 kts | 201° |
| 2026-05-09 17:38 | -53.00116 | -70.86866 | 143 ft | 3 kts | 91° |
| 2026-05-09 17:39 | -53.00116 | -70.86740 | 146 ft | 8 kts | 88° |
| 2026-05-09 17:39 | -53.00113 | -70.86638 | 147 ft | 10 kts | 88° |
| 2026-05-09 17:39 | -53.00110 | -70.86510 | 148 ft | 12 kts | 88° |
| 2026-05-09 17:39 | -53.00119 | -70.86346 | 149 ft | 9 kts | 137° |
| 2026-05-09 17:40 | -53.00179 | -70.86254 | 148 ft | 14 kts | 138° |
| 2026-05-09 17:40 | -53.00251 | -70.86149 | 147 ft | 15 kts | 138° |
| 2026-05-09 17:40 | -53.00277 | -70.86064 | 148 ft | 12 kts | 85° |
| 2026-05-09 17:40 | -53.00268 | -70.85907 | 149 ft | 15 kts | 85° |
| 2026-05-09 17:41 | -53.00263 | -70.85731 | 149 ft | 16 kts | 88° |
| 2026-05-09 17:41 | -53.00262 | -70.85542 | 149 ft | 16 kts | 91° |
| 2026-05-09 17:41 | -53.00263 | -70.85370 | 149 ft | 15 kts | 90° |
| 2026-05-09 17:41 | -53.00261 | -70.85202 | 149 ft | 14 kts | 87° |
| 2026-05-09 17:42 | -53.00259 | -70.85073 | 150 ft | 7 kts | 110° |
| 2026-05-09 17:42 | -53.00317 | -70.85066 | 150 ft | 8 kts | 201° |
| 2026-05-09 17:42 | -53.00358 | -70.85085 | 150 ft | 10 kts | 180° |
| 2026-05-09 17:42 | -53.00399 | -70.85006 | 150 ft | 11 kts | 91° |
| 2026-05-09 17:43 | -53.00399 | -70.84869 | 149 ft | 12 kts | 88° |
| 2026-05-09 17:43 | -53.00398 | -70.84774 | 149 ft | 5 kts | 89° |
| 2026-05-09 17:43 | -53.00397 | -70.84694 | 150 ft | 9 kts | 89° |
| 2026-05-09 17:43 | -53.00420 | -70.84644 | 150 ft | 5 kts | 176° |
| 2026-05-09 17:44 | -53.00446 | -70.84643 | 150 ft | 0 kts | 181° |